Happy Valentine's Day! 

Flight Track Log - Related Links

Times and Time Zones

All times are in EDT time to prevent confusion due to time zone crossing. See the DAL4165 flight status page for this flight to view local times or setup timezone preferences in your user account.


Time Position Orientation Groundspeed Altitude Reporting Facility
EDT Latitude Longitude Course Direction KTS MPH feet Rate Location/Type
Tue 07:15:15 PM 35.4811 -97.5639 17° North 202 232 3,900  Level Fort Worth Center
Tue 07:16:15 PM 35.5250 -97.4850 56° Northeast 228 262 6,100 2,300 Climbing Fort Worth Center
Tue 07:17:00 PM 35.4001 -97.0327 90° East  Level FlightAware Approximate
Tue 07:17:15 PM 35.5897 -97.4111 43° Northeast 271 312 8,500  Level Fort Worth Center
Tue 07:18:00 PM 35.4000 -96.8906 90° East  Level FlightAware Approximate
Tue 07:18:15 PM 35.6231 -97.3192 66° East 297 342 10,900  Level Fort Worth Center
Tue 07:19:00 PM 35.4000 -96.7485 90° East  Level FlightAware Approximate
Tue 07:19:15 PM 35.6186 -97.1914 92° East 307 353 11,900  Level Fort Worth Center
Tue 07:20:15 PM 35.6100 -97.0536 94° East 360 414 13,500 2,050 Climbing Fort Worth Center
Tue 07:21:15 PM 35.5992 -96.9183 96° East 382 440 16,000 2,500 Climbing Fort Worth Center
Tue 07:22:15 PM 35.5903 -96.7781 94° East 396 456 18,500 2,300 Climbing Fort Worth Center
Tue 07:23:15 PM 35.5792 -96.6453 96° East 396 456 20,600 1,900 Climbing Fort Worth Center
Tue 07:24:15 PM 35.5678 -96.5053 96° East 406 467 22,300 1,800 Climbing Fort Worth Center
Tue 07:25:15 PM 35.5583 -96.3597 95° East 413 475 24,200 1,200 Climbing Fort Worth Center
Tue 07:26:15 PM 35.5464 -96.2069 95° East 431 496 24,700 500 Climbing Fort Worth Center
Tue 07:27:15 PM 35.5344 -96.0514 95° East 448 516 25,200 950 Climbing Fort Worth Center
Tue 07:28:15 PM 35.5219 -95.8833 95° East 471 542 26,600 1,250 Climbing Fort Worth Center
Tue 07:29:15 PM 35.5139 -95.7331 94° East 481 554 27,700 1,200 Climbing Fort Worth Center
Tue 07:31:05 PM 35.4861 -95.4283 96° East 474 545 30,000 1,306 Climbing Memphis Center
Tue 07:32:05 PM 35.4761 -95.2622 94° East 479 551 31,400 1,500 Climbing Memphis Center
Tue 07:33:05 PM 35.4597 -95.0981 97° East 484 557 33,000 1,350 Climbing Memphis Center
Tue 07:34:05 PM 35.4469 -94.9367 96° East 484 557 34,100 950 Climbing Memphis Center
Tue 07:35:05 PM 35.4339 -94.7756 96° East 478 550 34,900 450 Climbing Memphis Center
Tue 07:36:05 PM 35.4167 -94.6092 97° East 485 558 35,000 50 Climbing Memphis Center
Tue 07:37:05 PM 35.4036 -94.4378 95° East 491 565 35,000  Level Memphis Center
Tue 07:38:05 PM 35.3864 -94.2664 97° East 503 579 35,000  Level Memphis Center
Tue 07:39:05 PM 35.3750 -94.0925 95° East 503 579 35,000  Level Memphis Center
Tue 07:40:05 PM 35.3633 -93.9214 95° East 503 579 35,000  Level Memphis Center
Tue 07:41:05 PM 35.3494 -93.7478 96° East 503 579 35,000  Level Memphis Center
Tue 07:42:05 PM 35.3372 -93.5742 95° East 503 579 35,000  Level Memphis Center
Tue 07:43:05 PM 35.3233 -93.3828 95° East 514 592 35,000  Level Memphis Center
Tue 07:44:05 PM 35.3106 -93.2094 95° East 509 586 35,000  Level Memphis Center
Tue 07:45:05 PM 35.2978 -93.0386 95° East 509 586 35,000  Level Memphis Center
Tue 07:46:05 PM 35.2847 -92.8625 95° East 509 586 35,000  Level Memphis Center
Tue 07:47:05 PM 35.2672 -92.6867 97° East 516 594 35,000  Level Memphis Center
Tue 07:48:05 PM 35.2517 -92.5081 96° East 522 601 35,000  Level Memphis Center
Tue 07:49:05 PM 35.2378 -92.3375 96° East 522 601 35,000  Level Memphis Center
Tue 07:50:05 PM 35.2239 -92.1642 96° East 517 595 35,000  Level Memphis Center
Tue 07:51:05 PM 35.2075 -91.9886 96° East 517 595 35,000  Level Memphis Center
Tue 07:52:05 PM 35.1908 -91.8131 97° East 522 601 35,000  Level Memphis Center
Tue 07:53:05 PM 35.1761 -91.6375 96° East 522 601 35,000  Level Memphis Center
Tue 07:54:05 PM 35.1631 -91.4594 95° East 522 601 35,000  Level Memphis Center
Tue 07:55:05 PM 35.1458 -91.2864 97° East 515 593 35,000  Level Memphis Center
Tue 07:56:05 PM 35.1303 -91.1111 96° East 520 598 35,000  Level Memphis Center
Tue 07:57:05 PM 35.1125 -90.9333 97° East 525 604 35,000  Level Memphis Center
Tue 07:58:05 PM 35.0964 -90.7581 96° East 520 598 35,000  Level Memphis Center
Tue 07:59:05 PM 35.0781 -90.5828 97° East 520 598 35,000  Level Memphis Center
Tue 08:00:05 PM 35.0636 -90.4256 96° East 520 598 35,000  Level Memphis Center
Tue 08:01:05 PM 35.0447 -90.2481 97° East 520 598 35,000  Level Memphis Center
Tue 08:02:05 PM 35.0278 -90.0731 97° East 520 598 35,000  Level Memphis Center
Tue 08:03:05 PM 35.0064 -89.8956 98° East 526 605 35,000  Level Memphis Center
Tue 08:04:05 PM 34.9825 -89.6981 98° East 526 605 35,000  Level Memphis Center
Tue 08:05:05 PM 34.9503 -89.5186 102° East 540 621 35,000  Level Memphis Center
Tue 08:06:05 PM 34.9219 -89.3492 101° East 527 606 35,000  Level Memphis Center
Tue 08:07:05 PM 34.8975 -89.1772 100° East 520 598 35,000  Level Memphis Center
Tue 08:08:05 PM 34.8706 -89.0081 101° East 504 580 35,000  Level Memphis Center
Tue 08:09:05 PM 34.8481 -88.8564 100° East 504 580 35,000  Level Memphis Center
Tue 08:10:05 PM 34.8208 -88.6850 101° East 504 580 35,000  Level Memphis Center
Tue 08:11:05 PM 34.7933 -88.5161 101° East 504 580 35,000  Level Memphis Center
Tue 08:12:05 PM 34.7678 -88.3522 101° East 504 580 35,000  Level Memphis Center
Tue 08:13:05 PM 34.7400 -88.1836 101° East 504 580 35,000  Level Memphis Center
Tue 08:14:05 PM 34.7158 -88.0100 100° East 511 588 35,000  Level Memphis Center
Tue 08:15:05 PM 34.6853 -87.8289 102° East 500 575 35,000 -588 Level Memphis Center
Tue 08:17:29 PM 34.6217 -87.4414 101° East 504 580 33,000 -588 Descending Atlanta Center
Tue 08:18:29 PM 34.5911 -87.2633 102° East 518 596 33,000  Level Atlanta Center
Tue 08:19:29 PM 34.5519 -87.0753 104° East 523 602 33,000  Level Atlanta Center
Tue 08:20:29 PM 34.5186 -86.9028 103° East 528 608 33,000 -150 Level Atlanta Center
Tue 08:21:29 PM 34.4850 -86.7303 103° East 528 608 32,700 -700 Descending Atlanta Center
Tue 08:22:29 PM 34.4511 -86.5528 103° East 528 608 31,600 -1,150 Descending Atlanta Center
Tue 08:23:29 PM 34.4169 -86.3806 103° East 533 613 30,400 -1,650 Descending Atlanta Center
Tue 08:24:29 PM 34.3847 -86.2061 103° East 533 613 28,300 -2,050 Descending Atlanta Center
Tue 08:25:29 PM 34.3497 -86.0417 104° East 523 602 26,300 -2,050 Descending Atlanta Center
Tue 08:26:29 PM 34.3169 -85.8797 104° East 503 579 24,200 -2,200 Descending Atlanta Center
Tue 08:27:29 PM 34.2897 -85.7333 103° East 492 566 21,900 -2,350 Descending Atlanta Center
Tue 08:28:29 PM 34.2583 -85.5819 104° East 471 542 19,500 -2,350 Descending Atlanta Center
Tue 08:29:29 PM 34.2247 -85.4206 104° East 466 536 17,200 -2,350 Descending Atlanta Center
Tue 08:30:29 PM 34.1950 -85.2769 104° East 444 511 14,800 -2,100 Descending Atlanta Center
Tue 08:31:29 PM 34.1692 -85.1486 104° East 412 474 13,000 -900 Descending Atlanta Center
Tue 08:32:29 PM 34.1136 -85.0575 126° Southeast 348 400 13,000 -350 Level Atlanta Center
Tue 08:33:29 PM 34.0431 -84.9964 144° Southeast 306 352 12,300 -1,200 Descending Atlanta Center
Tue 08:34:29 PM 33.9619 -84.9581 159° South 306 352 10,600 -1,650 Descending Atlanta Center
Tue 08:35:29 PM 33.8850 -84.9272 162° South 306 352 9,000 -800 Descending Atlanta Center
Tue 08:36:29 PM 33.8058 -84.9164 174° South 298 343 9,000 -800 Level Atlanta Center
Tue 08:37:29 PM 33.7264 -84.9106 177° South 293 337 7,400 -1,000 Descending Atlanta Center
Tue 08:38:29 PM 33.6578 -84.8872 164° South 275 316 7,000 -245 Descending Atlanta Center
Tue 08:39:07 PM 33.6333 -84.8333 119° Southeast 285 328 7,000 -306 Level Atlanta TRACON
Tue 08:40:07 PM 33.6333 -84.7333 90° East 263 303 6,500 -1,100 Descending Atlanta TRACON
Tue 08:41:07 PM 33.6333 -84.6667 90° East 229 264 4,800 -1,550 Descending Atlanta TRACON
Tue 08:42:07 PM 33.6333 -84.6000 90° East 207 238 3,400 -1,400 Descending Atlanta TRACON

Login

Don't have an account? Register now (free) for customized features, flight alerts, and more!